createdAt,value
2018-07-04T00:01:12.253Z,50.60
2018-07-04T00:03:52.578Z,51.00
2018-07-04T00:06:33.985Z,51.30
2018-07-04T00:09:14.262Z,51.80
2018-07-04T00:11:54.614Z,52.20
2018-07-04T00:14:34.865Z,52.20
2018-07-04T00:17:15.093Z,51.80
2018-07-04T00:19:55.384Z,51.00
2018-07-04T00:22:36.012Z,51.50
2018-07-04T00:25:16.085Z,51.50
2018-07-04T00:27:56.345Z,52.10
2018-07-04T00:33:10.865Z,52.90
2018-07-04T00:35:50.981Z,53.00
2018-07-04T00:38:31.612Z,53.20
2018-07-04T00:41:11.796Z,53.00
2018-07-04T00:43:51.898Z,53.50
2018-07-04T00:46:32.185Z,53.30
2018-07-04T00:49:12.457Z,53.30
2018-07-04T00:51:52.858Z,53.30
2018-07-04T00:54:33.165Z,53.30
2018-07-04T00:57:13.314Z,52.80
2018-07-04T00:59:53.582Z,52.70
2018-07-04T01:02:33.953Z,53.70
2018-07-04T01:05:14.329Z,54.00
2018-07-04T01:07:54.658Z,54.10
2018-07-04T01:10:34.841Z,53.80
2018-07-04T01:13:15.062Z,53.70
2018-07-04T01:15:55.350Z,53.70
2018-07-04T01:18:35.657Z,54.20
2018-07-04T01:21:16.117Z,54.40
2018-07-04T01:23:56.213Z,54.20
2018-07-04T01:26:36.373Z,54.90
2018-07-04T01:29:16.749Z,55.00
2018-07-04T01:31:56.921Z,54.70
2018-07-04T01:34:37.337Z,54.30
2018-07-04T01:37:17.548Z,54.80
2018-07-04T01:39:57.808Z,54.60
2018-07-04T01:42:38.024Z,54.70
2018-07-04T01:45:18.275Z,54.40
2018-07-04T01:47:58.565Z,55.20
2018-07-04T01:53:30.411Z,55.40
2018-07-04T01:56:10.690Z,55.00
2018-07-04T01:58:51.029Z,55.10
2018-07-04T02:01:31.353Z,55.40
2018-07-04T02:04:11.685Z,56.30
2018-07-04T02:06:52.093Z,55.80
2018-07-04T02:09:32.362Z,55.90
2018-07-04T02:12:12.649Z,54.50
2018-07-04T02:14:53.024Z,55.20
2018-07-04T02:17:39.026Z,55.90
2018-07-04T02:20:23.113Z,56.20
2018-07-04T02:23:03.290Z,56.90
2018-07-04T02:25:43.545Z,56.70
2018-07-04T02:28:24.004Z,55.30
2018-07-04T02:31:04.328Z,57.30
2018-07-04T02:33:44.653Z,58.20
2018-07-04T02:36:24.937Z,58.40
2018-07-04T02:39:05.705Z,57.30
2018-07-04T02:41:45.866Z,57.00
2018-07-04T02:44:26.193Z,57.40
2018-07-04T02:47:10.035Z,57.30
2018-07-04T02:49:50.293Z,58.30
2018-07-04T02:52:30.621Z,58.60
2018-07-04T02:55:11.022Z,58.70
2018-07-04T02:57:51.122Z,58.60
2018-07-04T03:00:31.591Z,58.70
2018-07-04T03:03:11.810Z,58.60
2018-07-04T03:05:52.193Z,58.40
2018-07-04T03:08:32.499Z,58.60
2018-07-04T03:11:12.761Z,58.70
2018-07-04T03:13:53.007Z,58.90
2018-07-04T03:16:33.706Z,58.90
2018-07-04T03:19:13.818Z,59.20
2018-07-04T03:21:54.097Z,59.50
2018-07-04T03:24:34.488Z,58.50
2018-07-04T03:27:14.674Z,59.10
2018-07-04T03:29:58.806Z,59.00
2018-07-04T03:32:39.114Z,58.10
2018-07-04T03:35:19.269Z,58.70
2018-07-04T03:37:59.717Z,59.30
2018-07-04T03:40:40.221Z,59.20
2018-07-04T03:43:20.414Z,58.90
2018-07-04T03:46:00.717Z,59.30
2018-07-04T03:48:40.966Z,59.20
2018-07-04T03:51:21.407Z,59.30
2018-07-04T03:54:01.668Z,60.10
2018-07-04T03:56:41.889Z,60.40
2018-07-04T04:02:13.448Z,60.10
2018-07-04T04:04:53.826Z,59.50
2018-07-04T04:07:34.054Z,59.10
2018-07-04T04:10:14.458Z,59.40
2018-07-04T04:12:54.545Z,59.20
2018-07-04T04:15:34.901Z,58.40
2018-07-04T04:18:15.209Z,58.30
2018-07-04T04:20:55.611Z,58.90
2018-07-04T04:23:35.905Z,59.90
2018-07-04T04:26:16.335Z,59.30
2018-07-04T04:28:56.605Z,58.20
2018-07-04T04:31:36.804Z,58.60
2018-07-04T04:34:17.033Z,59.20
2018-07-04T04:36:57.240Z,58.60
2018-07-04T04:39:37.513Z,58.60
2018-07-04T04:42:17.890Z,60.20
2018-07-04T04:44:58.338Z,62.40
2018-07-04T04:47:38.674Z,60.00
2018-07-04T04:50:18.914Z,59.60
2018-07-04T04:52:59.233Z,58.40
2018-07-04T04:55:39.458Z,59.10
2018-07-04T04:58:19.778Z,59.30
2018-07-04T05:01:08.743Z,58.60
2018-07-04T05:03:49.169Z,56.30
2018-07-04T05:06:29.772Z,57.80
2018-07-04T05:09:09.922Z,60.70
2018-07-04T05:11:50.202Z,61.50
2018-07-04T05:14:30.569Z,61.80
2018-07-04T05:17:10.933Z,59.40
2018-07-04T05:19:51.125Z,60.70
2018-07-04T05:22:31.354Z,60.30
2018-07-04T05:25:11.717Z,60.40
2018-07-04T05:27:53.066Z,59.10
2018-07-04T05:30:33.226Z,57.00
2018-07-04T05:33:13.347Z,56.30
2018-07-04T05:35:53.935Z,55.90
2018-07-04T05:38:34.152Z,56.40
2018-07-04T05:41:14.553Z,58.00
2018-07-04T05:43:54.796Z,60.50
2018-07-04T05:46:35.001Z,63.00
2018-07-04T05:49:15.313Z,65.50
2018-07-04T05:51:55.565Z,63.80
2018-07-04T05:54:35.832Z,64.90
2018-07-04T05:57:21.209Z,64.40
2018-07-04T06:00:01.698Z,63.00
2018-07-04T06:02:41.922Z,65.10
2018-07-04T06:05:29.458Z,62.00
2018-07-04T06:08:10.773Z,61.20
2018-07-04T06:10:51.105Z,60.70
2018-07-04T06:13:31.282Z,60.10
2018-07-04T06:16:17.849Z,58.60
2018-07-04T06:19:00.380Z,58.60
2018-07-04T06:21:41.473Z,59.10
2018-07-04T06:24:22.778Z,58.60
2018-07-04T06:27:08.445Z,58.10
2018-07-04T06:29:48.517Z,56.60
2018-07-04T06:32:28.754Z,57.40
2018-07-04T06:37:55.813Z,57.40
2018-07-04T06:40:23.606Z,57.20
2018-07-04T06:42:51.418Z,56.60
2018-07-04T06:45:32.477Z,57.10
2018-07-04T06:48:00.311Z,57.80
2018-07-04T06:50:28.102Z,57.90
2018-07-04T06:52:55.982Z,59.00
2018-07-04T06:55:23.824Z,58.40
2018-07-04T06:57:51.610Z,56.30
2018-07-04T07:00:19.757Z,56.20
2018-07-04T07:02:47.591Z,55.20
2018-07-04T07:05:31.990Z,54.60
2018-07-04T07:08:12.421Z,53.30
2018-07-04T07:10:52.469Z,54.20
2018-07-04T07:13:32.745Z,53.80
2018-07-04T07:16:14.023Z,53.50
2018-07-04T07:18:56.409Z,53.10
2018-07-04T07:21:36.681Z,51.60
2018-07-04T07:24:17.018Z,51.00
2018-07-04T07:26:57.154Z,50.70
2018-07-04T07:35:29.590Z,50.40
2018-07-04T07:38:09.841Z,50.10
2018-07-04T07:40:50.220Z,50.20
2018-07-04T07:43:30.474Z,49.30
2018-07-04T07:46:11.886Z,49.00
2018-07-04T07:48:52.238Z,49.50
2018-07-04T07:51:32.493Z,49.90
2018-07-04T07:54:12.671Z,49.40
2018-07-04T07:56:52.770Z,48.50
2018-07-04T07:59:33.093Z,48.80
2018-07-04T08:02:16.937Z,49.00
2018-07-04T08:04:57.287Z,48.80
2018-07-04T08:07:47.206Z,48.90
2018-07-04T08:10:27.274Z,47.90
2018-07-04T08:13:07.783Z,49.80
2018-07-04T08:15:47.745Z,48.20
2018-07-04T08:18:29.910Z,47.40
2018-07-04T08:21:10.129Z,48.60
2018-07-04T08:23:50.349Z,47.80
2018-07-04T08:26:30.706Z,46.80
2018-07-04T08:29:11.237Z,45.30
2018-07-04T08:31:51.474Z,46.10
2018-07-04T08:34:31.781Z,46.00
2018-07-04T08:37:18.329Z,45.50
2018-07-04T08:39:58.798Z,46.00
2018-07-04T08:42:39.074Z,46.10
2018-07-04T08:45:19.277Z,45.00
2018-07-04T08:47:59.497Z,44.60
2018-07-04T08:50:39.596Z,44.00
2018-07-04T08:53:19.806Z,44.90
2018-07-04T08:56:06.314Z,44.40
2018-07-04T08:58:46.590Z,43.60
2018-07-04T09:01:27.281Z,44.30
2018-07-04T09:04:07.323Z,44.20
2018-07-04T09:06:49.814Z,42.60
2018-07-04T09:09:30.281Z,41.50
2018-07-04T09:12:10.784Z,40.90
2018-07-04T09:14:51.065Z,40.80
2018-07-04T09:17:31.341Z,42.30
2018-07-04T09:20:11.474Z,43.50
2018-07-04T09:22:51.788Z,44.20
2018-07-04T09:25:31.968Z,43.90
2018-07-04T09:28:12.145Z,44.00
2018-07-04T09:30:56.613Z,42.60
2018-07-04T09:33:36.770Z,42.70
2018-07-04T09:36:16.961Z,43.20
2018-07-04T09:38:57.505Z,42.60
2018-07-04T09:41:37.798Z,42.60
2018-07-04T09:44:18.018Z,40.50
2018-07-04T09:46:58.064Z,40.80
2018-07-04T09:49:38.147Z,40.10
2018-07-04T09:52:18.161Z,42.00
2018-07-04T09:54:58.549Z,41.60
2018-07-04T09:57:38.814Z,36.20
2018-07-04T10:00:22.969Z,35.60
2018-07-04T10:03:02.977Z,36.10
2018-07-04T10:05:42.890Z,36.10
2018-07-04T10:08:23.057Z,38.10
2018-07-04T10:11:03.421Z,36.80
2018-07-04T10:13:43.629Z,36.70
2018-07-04T10:16:23.969Z,37.00
2018-07-04T10:19:04.284Z,36.10
2018-07-04T10:21:44.450Z,36.10
2018-07-04T10:24:24.602Z,36.20
2018-07-04T10:27:04.858Z,37.50
2018-07-04T10:29:45.094Z,37.00
2018-07-04T10:32:25.282Z,35.20
2018-07-04T10:35:05.679Z,35.30
2018-07-04T10:37:46.102Z,35.20
2018-07-04T10:40:26.193Z,33.90
2018-07-04T10:43:06.255Z,33.50
2018-07-04T10:45:46.367Z,33.60
2018-07-04T10:48:29.817Z,34.10
2018-07-04T10:51:09.942Z,35.70
2018-07-04T10:53:50.257Z,35.50
2018-07-04T10:56:36.894Z,36.50
2018-07-04T10:59:16.954Z,35.20
2018-07-04T11:01:57.210Z,34.90
2018-07-04T11:04:43.703Z,35.20
2018-07-04T11:07:23.737Z,36.30
2018-07-04T11:10:03.909Z,36.60
2018-07-04T11:12:44.514Z,35.10
2018-07-04T11:15:36.614Z,36.10
2018-07-04T11:18:16.711Z,35.50
2018-07-04T11:20:56.873Z,34.90
2018-07-04T11:23:37.201Z,34.90
2018-07-04T11:26:17.337Z,32.90
2018-07-04T11:28:57.582Z,34.20
2018-07-04T11:31:37.689Z,34.30
2018-07-04T11:34:18.650Z,33.80
2018-07-04T11:36:58.797Z,33.50
2018-07-04T11:39:39.062Z,34.70
2018-07-04T11:42:19.236Z,35.20
2018-07-04T11:44:59.237Z,32.40
2018-07-04T11:47:27.061Z,33.70
2018-07-04T11:49:54.847Z,33.60
2018-07-04T11:52:22.630Z,32.30
2018-07-04T11:54:50.450Z,32.90
2018-07-04T11:57:18.326Z,32.90
2018-07-04T11:59:46.125Z,33.60
2018-07-04T12:02:13.934Z,32.10
2018-07-04T12:04:56.113Z,32.10
2018-07-04T12:07:24.191Z,31.20
2018-07-04T12:09:51.981Z,32.70
2018-07-04T12:12:24.808Z,33.30
2018-07-04T12:14:52.602Z,32.60
2018-07-04T12:17:20.409Z,33.40
2018-07-04T12:19:48.225Z,32.70
2018-07-04T12:22:33.609Z,33.00
2018-07-04T12:25:01.426Z,31.60
2018-07-04T12:27:29.181Z,32.60
2018-07-04T12:29:56.979Z,32.50
2018-07-04T12:32:24.740Z,32.20
2018-07-04T12:34:52.581Z,31.00
2018-07-04T12:37:20.450Z,32.40
2018-07-04T12:39:48.182Z,31.90
2018-07-04T12:42:15.973Z,31.20
2018-07-04T12:44:53.022Z,32.10
2018-07-04T12:47:20.981Z,31.00
2018-07-04T12:49:48.782Z,30.40
2018-07-04T12:52:16.601Z,29.40
2018-07-04T12:54:49.798Z,29.40
2018-07-04T12:57:30.102Z,30.60
2018-07-04T13:03:01.851Z,29.60
2018-07-04T13:08:39.434Z,29.30
2018-07-04T13:11:19.477Z,30.00
2018-07-04T13:14:00.964Z,29.50
2018-07-04T13:16:40.913Z,30.30
2018-07-04T13:19:21.618Z,30.00
2018-07-04T13:22:01.682Z,30.40
2018-07-04T13:27:15.958Z,31.60
2018-07-04T13:30:05.933Z,31.60
2018-07-04T13:32:46.362Z,31.10
2018-07-04T13:35:26.682Z,32.60
2018-07-04T13:38:06.698Z,32.80
2018-07-04T13:40:49.265Z,33.10
2018-07-04T13:43:29.387Z,33.50
2018-07-04T13:46:10.493Z,32.60
2018-07-04T13:48:50.739Z,32.20
2018-07-04T13:51:32.065Z,31.10
2018-07-04T13:54:12.361Z,32.70
2018-07-04T13:56:52.637Z,33.70
2018-07-04T13:59:33.006Z,33.90
2018-07-04T14:02:13.277Z,34.40
2018-07-04T14:04:53.493Z,35.00
2018-07-04T14:07:33.881Z,35.30
2018-07-04T14:10:14.054Z,35.30
2018-07-04T14:12:54.224Z,35.90
2018-07-04T14:15:34.513Z,35.80
2018-07-04T14:18:23.471Z,33.60
2018-07-04T14:21:03.797Z,32.80
2018-07-04T14:23:44.124Z,31.70
2018-07-04T14:26:24.473Z,31.60
2018-07-04T14:29:04.569Z,31.70
2018-07-04T14:31:44.727Z,30.50
2018-07-04T14:34:24.902Z,30.30
2018-07-04T14:37:05.247Z,31.00
2018-07-04T14:39:45.545Z,29.40
2018-07-04T14:42:25.981Z,31.00
2018-07-04T14:45:06.190Z,31.40
2018-07-04T14:47:46.706Z,32.20
2018-07-04T14:50:26.782Z,32.00
2018-07-04T14:53:16.497Z,32.40
2018-07-04T14:55:56.613Z,33.30
2018-07-04T14:58:36.873Z,33.00
2018-07-04T15:01:22.205Z,32.20
2018-07-04T15:04:02.520Z,32.60
2018-07-04T15:06:42.714Z,33.10
2018-07-04T15:09:23.034Z,34.00
2018-07-04T15:12:04.217Z,34.10
2018-07-04T15:14:44.477Z,33.30
2018-07-04T15:17:24.874Z,36.30
2018-07-04T15:20:05.199Z,37.00
2018-07-04T15:22:45.373Z,38.20
2018-07-04T15:25:28.702Z,37.40
2018-07-04T15:28:08.992Z,37.60
2018-07-04T15:30:49.210Z,37.50
2018-07-04T15:33:29.544Z,38.30
2018-07-04T15:36:09.920Z,38.60
2018-07-04T15:41:41.533Z,38.60
2018-07-04T15:44:21.917Z,39.30
2018-07-04T15:47:04.226Z,38.80
2018-07-04T15:49:48.722Z,38.40
2018-07-04T15:52:29.262Z,40.10
2018-07-04T15:55:09.671Z,41.80
2018-07-04T16:00:41.119Z,43.00
2018-07-04T16:03:21.409Z,43.40
2018-07-04T16:06:01.627Z,44.30
2018-07-04T16:08:41.899Z,44.40
2018-07-04T16:11:22.285Z,45.60
2018-07-04T16:14:04.939Z,44.90
2018-07-04T16:16:45.330Z,45.30
2018-07-04T16:19:25.518Z,42.90
2018-07-04T16:22:06.701Z,41.40
2018-07-04T16:24:47.053Z,41.30
2018-07-04T16:27:27.299Z,40.70
2018-07-04T16:30:07.437Z,40.30
2018-07-04T16:32:47.750Z,40.90
2018-07-04T16:35:27.986Z,40.90
2018-07-04T16:38:08.197Z,41.50
2018-07-04T16:40:48.540Z,41.90
2018-07-04T16:43:28.734Z,42.50
2018-07-04T16:46:08.869Z,43.20
2018-07-04T16:48:49.044Z,44.20
2018-07-04T16:51:29.350Z,45.00
2018-07-04T16:54:09.486Z,45.80
2018-07-04T16:56:49.677Z,46.70
2018-07-04T16:59:29.628Z,48.10
2018-07-04T17:02:09.801Z,49.10
2018-07-04T17:04:50.080Z,50.30
2018-07-04T17:07:30.286Z,50.20
2018-07-04T17:10:10.364Z,51.30
2018-07-04T17:15:24.910Z,51.70
2018-07-04T17:18:05.174Z,52.80
2018-07-04T17:20:45.409Z,51.10
2018-07-04T17:23:25.567Z,50.10
2018-07-04T17:26:05.857Z,49.10
2018-07-04T17:28:46.107Z,48.20
2018-07-04T17:31:26.369Z,47.10
2018-07-04T17:34:06.614Z,47.70
2018-07-04T17:36:46.949Z,47.20
2018-07-04T17:39:27.305Z,47.90
2018-07-04T17:42:11.750Z,47.50
2018-07-04T17:44:51.881Z,48.00
2018-07-04T17:47:32.246Z,47.60
2018-07-04T17:50:12.591Z,50.50
2018-07-04T17:52:52.893Z,53.20
2018-07-04T17:55:33.193Z,54.30
2018-07-04T17:58:13.422Z,55.40
2018-07-04T18:00:53.664Z,53.80
2018-07-04T18:03:33.977Z,53.60
2018-07-04T18:06:14.133Z,55.10
2018-07-04T18:08:54.200Z,54.40
2018-07-04T18:11:34.280Z,56.30
2018-07-04T18:14:14.592Z,59.30
2018-07-04T18:16:54.855Z,56.70
2018-07-04T18:19:34.897Z,57.50
2018-07-04T18:22:14.953Z,58.10
2018-07-04T18:24:55.142Z,58.30
2018-07-04T18:27:35.353Z,59.00
2018-07-04T18:30:15.629Z,60.10
2018-07-04T18:32:55.826Z,56.30
2018-07-04T18:35:36.033Z,55.10
2018-07-04T18:38:16.170Z,54.90
2018-07-04T18:40:56.309Z,55.20
2018-07-04T18:43:36.458Z,55.80
2018-07-04T18:46:17.640Z,56.70
2018-07-04T18:49:01.281Z,57.10
2018-07-04T18:51:41.297Z,57.20
2018-07-04T18:54:21.521Z,56.50
2018-07-04T18:57:01.658Z,56.90
2018-07-04T18:59:46.980Z,57.30
2018-07-04T19:02:27.238Z,58.80
2018-07-04T19:05:07.401Z,58.20
2018-07-04T19:07:47.533Z,58.80
2018-07-04T19:10:27.604Z,58.40
2018-07-04T19:13:07.685Z,58.90
2018-07-04T19:15:47.821Z,59.20
2018-07-04T19:18:28.133Z,60.20
2018-07-04T19:23:59.752Z,60.20
2018-07-04T19:26:40.081Z,60.00
2018-07-04T19:29:20.372Z,60.90
2018-07-04T19:32:00.757Z,61.80
2018-07-04T19:34:41.110Z,62.00
2018-07-04T19:37:21.313Z,62.30
2018-07-04T19:40:01.454Z,63.10
2018-07-04T19:42:41.552Z,63.10
2018-07-04T19:45:21.709Z,63.60
2018-07-04T19:48:01.888Z,63.90
2018-07-04T19:53:33.731Z,66.40
2018-07-04T19:56:13.832Z,67.00
2018-07-04T19:58:54.101Z,67.30
2018-07-04T20:01:34.378Z,67.30
2018-07-04T20:04:14.801Z,66.70
2018-07-04T20:06:57.090Z,66.70
2018-07-04T20:09:37.147Z,67.30
2018-07-04T20:12:17.277Z,67.50
2018-07-04T20:14:57.577Z,69.10
2018-07-04T20:17:37.773Z,68.20
2018-07-04T20:20:18.173Z,69.00
2018-07-04T20:23:02.670Z,68.70
2018-07-04T20:25:49.436Z,70.30
2018-07-04T20:28:29.718Z,71.20
2018-07-04T20:34:07.066Z,71.40
2018-07-04T20:36:47.409Z,71.90
2018-07-04T20:39:27.762Z,71.30
2018-07-04T20:42:08.185Z,71.30
2018-07-04T20:44:48.493Z,71.60
2018-07-04T20:47:28.800Z,71.50
2018-07-04T20:52:43.082Z,72.60
2018-07-04T20:55:23.511Z,71.80
2018-07-04T20:58:03.987Z,71.90
2018-07-04T21:00:48.425Z,72.00
2018-07-04T21:03:28.474Z,71.90
2018-07-04T21:06:08.768Z,72.00
2018-07-04T21:08:49.239Z,72.60
2018-07-04T21:11:29.515Z,72.70
2018-07-04T21:14:09.854Z,72.80
2018-07-04T21:16:50.078Z,73.30
2018-07-04T21:19:30.482Z,73.30
2018-07-04T21:22:10.666Z,73.50
2018-07-04T21:24:51.022Z,73.50
2018-07-04T21:27:36.287Z,73.60
2018-07-04T21:30:16.496Z,72.60
2018-07-04T21:32:56.714Z,73.90
2018-07-04T21:35:36.967Z,73.60
2018-07-04T21:38:17.168Z,74.20
2018-07-04T21:40:57.176Z,73.90
2018-07-04T21:43:37.498Z,74.80
2018-07-04T21:46:17.929Z,74.80
2018-07-04T21:48:58.145Z,74.10
2018-07-04T21:51:38.449Z,74.20
2018-07-04T21:54:18.769Z,75.30
2018-07-04T21:56:59.041Z,76.00
2018-07-04T21:59:39.238Z,75.60
2018-07-04T22:02:19.505Z,75.50
2018-07-04T22:05:01.809Z,76.50
2018-07-04T22:07:42.071Z,75.50
2018-07-04T22:10:22.173Z,76.10
2018-07-04T22:13:02.370Z,75.80
2018-07-04T22:15:42.603Z,75.90
2018-07-04T22:18:28.986Z,76.50
2018-07-04T22:21:09.189Z,76.90
2018-07-04T22:23:49.416Z,76.70
2018-07-04T22:26:29.670Z,77.50
2018-07-04T22:29:09.881Z,77.20
2018-07-04T22:31:50.061Z,77.20
2018-07-04T22:34:30.461Z,77.50
2018-07-04T22:37:10.864Z,77.90
2018-07-04T22:42:25.141Z,77.70
2018-07-04T22:45:05.473Z,77.60
2018-07-04T22:47:46.861Z,77.90
2018-07-04T22:50:27.131Z,78.50
2018-07-04T22:53:07.493Z,79.20
2018-07-04T22:55:47.829Z,78.20
2018-07-04T22:58:28.109Z,78.50
2018-07-04T23:01:08.309Z,78.60
2018-07-04T23:03:48.721Z,78.80
2018-07-04T23:06:29.085Z,79.10
2018-07-04T23:09:09.401Z,79.10
2018-07-04T23:11:49.741Z,79.20
2018-07-04T23:14:29.933Z,79.80
2018-07-04T23:17:10.278Z,79.30
2018-07-04T23:19:50.557Z,80.50
2018-07-04T23:22:30.906Z,80.20
2018-07-04T23:25:11.233Z,79.80
2018-07-04T23:27:51.501Z,79.80
2018-07-04T23:30:31.842Z,80.80
2018-07-04T23:33:12.029Z,80.30
2018-07-04T23:35:52.449Z,80.80
2018-07-04T23:38:32.621Z,81.00
2018-07-04T23:41:12.923Z,80.90
2018-07-04T23:46:31.177Z,81.10
2018-07-04T23:49:11.388Z,81.60
2018-07-04T23:51:51.693Z,82.40
2018-07-04T23:54:31.725Z,82.30
2018-07-04T23:57:11.990Z,83.00
2018-07-04T23:59:52.469Z,82.70
